sensor_id;sensor_type;location;lat;lon;timestamp;temperature;humidity
52509;DHT22;38420;53.150;6.370;2023-09-19T00:02:17;13.70;99.90
52509;DHT22;38420;53.150;6.370;2023-09-19T00:04:43;13.70;99.90
52509;DHT22;38420;53.150;6.370;2023-09-19T00:07:10;14.80;99.90
52509;DHT22;38420;53.150;6.370;2023-09-19T00:09:35;13.70;99.90
52509;DHT22;38420;53.150;6.370;2023-09-19T00:12:07;13.60;99.90
52509;DHT22;38420;53.150;6.370;2023-09-19T00:14:34;14.80;99.90
52509;DHT22;38420;53.150;6.370;2023-09-19T00:17:01;14.10;99.90
52509;DHT22;38420;53.150;6.370;2023-09-19T00:19:34;14.30;99.90
52509;DHT22;38420;53.150;6.370;2023-09-19T00:21:59;14.40;99.90
52509;DHT22;38420;53.150;6.370;2023-09-19T00:24:26;14.40;99.90
52509;DHT22;38420;53.150;6.370;2023-09-19T00:26:53;14.20;99.90
52509;DHT22;38420;53.150;6.370;2023-09-19T00:29:21;14.10;99.90
52509;DHT22;38420;53.150;6.370;2023-09-19T00:31:46;14.20;99.90
52509;DHT22;38420;53.150;6.370;2023-09-19T00:34:12;13.30;99.90
52509;DHT22;38420;53.150;6.370;2023-09-19T00:36:38;14.60;99.90
52509;DHT22;38420;53.150;6.370;2023-09-19T00:39:08;13.50;99.90
52509;DHT22;38420;53.150;6.370;2023-09-19T00:41:35;13.30;99.90
52509;DHT22;38420;53.150;6.370;2023-09-19T00:44:02;13.40;99.90
52509;DHT22;38420;53.150;6.370;2023-09-19T00:46:32;13.50;99.90
52509;DHT22;38420;53.150;6.370;2023-09-19T00:48:58;13.60;99.90
52509;DHT22;38420;53.150;6.370;2023-09-19T00:51:26;14.30;99.90
52509;DHT22;38420;53.150;6.370;2023-09-19T00:53:52;14.20;99.90
52509;DHT22;38420;53.150;6.370;2023-09-19T00:56:19;14.30;99.90
52509;DHT22;38420;53.150;6.370;2023-09-19T00:58:46;14.30;99.90
52509;DHT22;38420;53.150;6.370;2023-09-19T01:01:13;14.30;99.90
52509;DHT22;38420;53.150;6.370;2023-09-19T01:03:41;14.10;99.90
52509;DHT22;38420;53.150;6.370;2023-09-19T01:06:07;14.00;99.90
52509;DHT22;38420;53.150;6.370;2023-09-19T01:08:34;13.10;99.90
52509;DHT22;38420;53.150;6.370;2023-09-19T01:11:11;14.10;99.90
52509;DHT22;38420;53.150;6.370;2023-09-19T01:17:49;13.20;99.90
52509;DHT22;38420;53.150;6.370;2023-09-19T01:25:42;13.10;99.90
52509;DHT22;38420;53.150;6.370;2023-09-19T01:31:06;13.80;99.90
52509;DHT22;38420;53.150;6.370;2023-09-19T01:33:54;13.50;99.90
52509;DHT22;38420;53.150;6.370;2023-09-19T01:36:29;13.10;99.90
52509;DHT22;38420;53.150;6.370;2023-09-19T01:38:55;13.10;99.90
52509;DHT22;38420;53.150;6.370;2023-09-19T01:44:22;13.10;99.90
52509;DHT22;38420;53.150;6.370;2023-09-19T01:46:49;13.10;99.90
52509;DHT22;38420;53.150;6.370;2023-09-19T01:49:50;13.50;99.90
52509;DHT22;38420;53.150;6.370;2023-09-19T01:52:22;13.10;99.90
52509;DHT22;38420;53.150;6.370;2023-09-19T01:54:52;13.80;99.90
52509;DHT22;38420;53.150;6.370;2023-09-19T01:57:27;13.00;99.90
52509;DHT22;38420;53.150;6.370;2023-09-19T02:00:07;13.90;99.90
52509;DHT22;38420;53.150;6.370;2023-09-19T02:02:36;13.70;99.90
52509;DHT22;38420;53.150;6.370;2023-09-19T02:05:03;13.50;99.90
52509;DHT22;38420;53.150;6.370;2023-09-19T02:07:29;13.00;99.90
52509;DHT22;38420;53.150;6.370;2023-09-19T02:10:00;12.90;99.90
52509;DHT22;38420;53.150;6.370;2023-09-19T02:12:26;13.10;99.90
52509;DHT22;38420;53.150;6.370;2023-09-19T02:14:52;13.50;99.90
52509;DHT22;38420;53.150;6.370;2023-09-19T02:17:18;13.40;99.90
52509;DHT22;38420;53.150;6.370;2023-09-19T02:19:44;12.90;99.90
52509;DHT22;38420;53.150;6.370;2023-09-19T02:22:10;13.10;99.90
52509;DHT22;38420;53.150;6.370;2023-09-19T02:24:39;13.40;99.90
52509;DHT22;38420;53.150;6.370;2023-09-19T02:27:05;13.40;99.90
52509;DHT22;38420;53.150;6.370;2023-09-19T02:29:31;13.70;99.90
52509;DHT22;38420;53.150;6.370;2023-09-19T02:31:57;13.00;99.90
52509;DHT22;38420;53.150;6.370;2023-09-19T02:34:23;13.40;99.90
52509;DHT22;38420;53.150;6.370;2023-09-19T02:36:49;13.10;99.90
52509;DHT22;38420;53.150;6.370;2023-09-19T02:39:14;13.20;99.90
52509;DHT22;38420;53.150;6.370;2023-09-19T02:41:40;13.00;99.90
52509;DHT22;38420;53.150;6.370;2023-09-19T02:44:07;13.40;99.90
52509;DHT22;38420;53.150;6.370;2023-09-19T02:46:34;12.80;99.90
52509;DHT22;38420;53.150;6.370;2023-09-19T02:49:01;13.40;99.90
52509;DHT22;38420;53.150;6.370;2023-09-19T02:51:28;13.40;99.90
52509;DHT22;38420;53.150;6.370;2023-09-19T02:53:54;13.40;99.90
52509;DHT22;38420;53.150;6.370;2023-09-19T02:56:20;13.10;99.90
52509;DHT22;38420;53.150;6.370;2023-09-19T02:58:45;13.30;99.90
52509;DHT22;38420;53.150;6.370;2023-09-19T03:01:11;13.30;99.90
52509;DHT22;38420;53.150;6.370;2023-09-19T03:03:37;12.70;99.90
52509;DHT22;38420;53.150;6.370;2023-09-19T03:06:05;13.20;99.90
52509;DHT22;38420;53.150;6.370;2023-09-19T03:08:31;12.90;99.90
52509;DHT22;38420;53.150;6.370;2023-09-19T03:11:03;13.00;99.90
52509;DHT22;38420;53.150;6.370;2023-09-19T03:13:33;13.10;99.90
52509;DHT22;38420;53.150;6.370;2023-09-19T03:15:59;12.50;99.90
52509;DHT22;38420;53.150;6.370;2023-09-19T03:18:25;13.00;99.90
52509;DHT22;38420;53.150;6.370;2023-09-19T03:20:55;12.80;99.90
52509;DHT22;38420;53.150;6.370;2023-09-19T03:23:21;13.30;99.90
52509;DHT22;38420;53.150;6.370;2023-09-19T03:25:46;12.90;99.90
52509;DHT22;38420;53.150;6.370;2023-09-19T03:28:13;13.10;99.90
52509;DHT22;38420;53.150;6.370;2023-09-19T03:30:38;13.20;99.90
52509;DHT22;38420;53.150;6.370;2023-09-19T03:33:04;13.30;99.90
52509;DHT22;38420;53.150;6.370;2023-09-19T03:35:30;12.30;99.90
52509;DHT22;38420;53.150;6.370;2023-09-19T03:37:56;12.30;99.90
52509;DHT22;38420;53.150;6.370;2023-09-19T03:40:22;13.10;99.90
52509;DHT22;38420;53.150;6.370;2023-09-19T03:42:48;12.20;99.90
52509;DHT22;38420;53.150;6.370;2023-09-19T03:45:14;13.10;99.90
52509;DHT22;38420;53.150;6.370;2023-09-19T03:47:40;13.00;99.90
52509;DHT22;38420;53.150;6.370;2023-09-19T03:50:06;13.30;99.90
52509;DHT22;38420;53.150;6.370;2023-09-19T03:52:33;12.40;99.90
52509;DHT22;38420;53.150;6.370;2023-09-19T03:54:59;12.40;99.90
52509;DHT22;38420;53.150;6.370;2023-09-19T03:57:26;12.30;99.90
52509;DHT22;38420;53.150;6.370;2023-09-19T03:59:52;13.10;99.90
52509;DHT22;38420;53.150;6.370;2023-09-19T04:02:19;13.00;99.90
52509;DHT22;38420;53.150;6.370;2023-09-19T04:04:49;12.60;99.90
52509;DHT22;38420;53.150;6.370;2023-09-19T04:07:15;12.90;99.90
52509;DHT22;38420;53.150;6.370;2023-09-19T04:09:41;12.40;99.90
52509;DHT22;38420;53.150;6.370;2023-09-19T04:12:07;13.00;99.90
52509;DHT22;38420;53.150;6.370;2023-09-19T04:14:36;13.20;99.90
52509;DHT22;38420;53.150;6.370;2023-09-19T04:17:03;13.30;99.90
52509;DHT22;38420;53.150;6.370;2023-09-19T04:19:30;13.30;99.90
52509;DHT22;38420;53.150;6.370;2023-09-19T04:21:56;12.50;99.90
52509;DHT22;38420;53.150;6.370;2023-09-19T04:24:21;13.60;99.90
52509;DHT22;38420;53.150;6.370;2023-09-19T04:26:47;12.50;99.90
52509;DHT22;38420;53.150;6.370;2023-09-19T04:29:13;13.50;99.90
52509;DHT22;38420;53.150;6.370;2023-09-19T04:31:39;12.50;99.90
52509;DHT22;38420;53.150;6.370;2023-09-19T04:34:06;12.50;99.90
52509;DHT22;38420;53.150;6.370;2023-09-19T04:36:31;13.50;99.90
52509;DHT22;38420;53.150;6.370;2023-09-19T04:38:57;13.10;99.90
52509;DHT22;38420;53.150;6.370;2023-09-19T04:41:23;13.10;99.90
52509;DHT22;38420;53.150;6.370;2023-09-19T04:43:50;12.90;99.90
52509;DHT22;38420;53.150;6.370;2023-09-19T04:46:16;12.80;99.90
52509;DHT22;38420;53.150;6.370;2023-09-19T04:48:43;13.70;99.90
52509;DHT22;38420;53.150;6.370;2023-09-19T04:51:08;12.80;99.90
52509;DHT22;38420;53.150;6.370;2023-09-19T04:53:36;13.50;99.90
52509;DHT22;38420;53.150;6.370;2023-09-19T04:56:01;12.60;99.90
52509;DHT22;38420;53.150;6.370;2023-09-19T04:58:29;13.80;99.90
52509;DHT22;38420;53.150;6.370;2023-09-19T05:00:55;13.60;99.90
52509;DHT22;38420;53.150;6.370;2023-09-19T05:03:21;12.80;99.90
52509;DHT22;38420;53.150;6.370;2023-09-19T05:05:47;12.70;99.90
52509;DHT22;38420;53.150;6.370;2023-09-19T05:08:14;13.40;99.90
52509;DHT22;38420;53.150;6.370;2023-09-19T05:10:40;13.50;99.90
52509;DHT22;38420;53.150;6.370;2023-09-19T05:13:06;12.90;99.90
52509;DHT22;38420;53.150;6.370;2023-09-19T05:15:33;13.40;99.90
52509;DHT22;38420;53.150;6.370;2023-09-19T05:17:59;13.20;99.90
52509;DHT22;38420;53.150;6.370;2023-09-19T05:20:25;13.70;99.90
52509;DHT22;38420;53.150;6.370;2023-09-19T05:23:02;13.40;99.90
52509;DHT22;38420;53.150;6.370;2023-09-19T05:25:30;13.10;99.90
52509;DHT22;38420;53.150;6.370;2023-09-19T05:27:57;12.80;99.90
52509;DHT22;38420;53.150;6.370;2023-09-19T05:30:23;13.40;99.90
52509;DHT22;38420;53.150;6.370;2023-09-19T05:32:49;13.70;99.90
52509;DHT22;38420;53.150;6.370;2023-09-19T05:35:15;14.00;99.90
52509;DHT22;38420;53.150;6.370;2023-09-19T05:37:40;13.70;99.90
52509;DHT22;38420;53.150;6.370;2023-09-19T05:40:07;13.30;99.90
52509;DHT22;38420;53.150;6.370;2023-09-19T05:42:35;13.00;99.90
52509;DHT22;38420;53.150;6.370;2023-09-19T05:45:01;14.10;99.90
52509;DHT22;38420;53.150;6.370;2023-09-19T05:47:26;13.10;99.90
52509;DHT22;38420;53.150;6.370;2023-09-19T05:49:52;13.20;99.90
52509;DHT22;38420;53.150;6.370;2023-09-19T05:52:19;14.10;99.90
52509;DHT22;38420;53.150;6.370;2023-09-19T05:54:45;13.10;99.90
52509;DHT22;38420;53.150;6.370;2023-09-19T05:57:10;13.90;99.90
52509;DHT22;38420;53.150;6.370;2023-09-19T05:59:37;13.30;99.90
52509;DHT22;38420;53.150;6.370;2023-09-19T06:02:05;13.00;99.90
52509;DHT22;38420;53.150;6.370;2023-09-19T06:04:31;14.20;99.90
52509;DHT22;38420;53.150;6.370;2023-09-19T06:06:57;14.10;99.90
52509;DHT22;38420;53.150;6.370;2023-09-19T06:09:23;14.20;99.90
52509;DHT22;38420;53.150;6.370;2023-09-19T06:11:49;13.90;99.90
52509;DHT22;38420;53.150;6.370;2023-09-19T06:14:14;13.50;99.90
52509;DHT22;38420;53.150;6.370;2023-09-19T06:16:43;13.90;99.90
52509;DHT22;38420;53.150;6.370;2023-09-19T06:19:09;14.30;99.90
52509;DHT22;38420;53.150;6.370;2023-09-19T06:21:35;13.20;99.90
52509;DHT22;38420;53.150;6.370;2023-09-19T06:24:02;13.10;99.90
52509;DHT22;38420;53.150;6.370;2023-09-19T06:26:28;13.10;99.90
52509;DHT22;38420;53.150;6.370;2023-09-19T06:28:55;14.30;99.90
52509;DHT22;38420;53.150;6.370;2023-09-19T06:31:21;14.10;99.90
52509;DHT22;38420;53.150;6.370;2023-09-19T06:33:48;14.40;99.90
52509;DHT22;38420;53.150;6.370;2023-09-19T06:36:14;13.30;99.90
52509;DHT22;38420;53.150;6.370;2023-09-19T06:38:40;14.40;99.90
52509;DHT22;38420;53.150;6.370;2023-09-19T06:41:06;13.90;99.90
52509;DHT22;38420;53.150;6.370;2023-09-19T06:43:35;14.30;99.90
52509;DHT22;38420;53.150;6.370;2023-09-19T06:46:01;13.40;99.90
52509;DHT22;38420;53.150;6.370;2023-09-19T06:48:27;14.40;99.90
52509;DHT22;38420;53.150;6.370;2023-09-19T06:50:58;13.60;99.90
52509;DHT22;38420;53.150;6.370;2023-09-19T06:53:34;14.00;99.90
52509;DHT22;38420;53.150;6.370;2023-09-19T06:56:01;14.20;99.90
52509;DHT22;38420;53.150;6.370;2023-09-19T06:58:27;13.90;99.90
52509;DHT22;38420;53.150;6.370;2023-09-19T07:00:52;14.50;99.90
52509;DHT22;38420;53.150;6.370;2023-09-19T07:03:19;13.90;99.90
52509;DHT22;38420;53.150;6.370;2023-09-19T07:05:47;14.60;99.90
52509;DHT22;38420;53.150;6.370;2023-09-19T07:08:13;14.50;99.90
52509;DHT22;38420;53.150;6.370;2023-09-19T07:10:41;14.70;99.90
52509;DHT22;38420;53.150;6.370;2023-09-19T07:13:08;14.60;99.90
52509;DHT22;38420;53.150;6.370;2023-09-19T07:15:39;14.10;99.90
52509;DHT22;38420;53.150;6.370;2023-09-19T07:18:07;14.90;99.90
52509;DHT22;38420;53.150;6.370;2023-09-19T07:20:34;14.50;99.90
52509;DHT22;38420;53.150;6.370;2023-09-19T07:23:00;14.60;99.90
52509;DHT22;38420;53.150;6.370;2023-09-19T07:25:29;15.00;99.90
52509;DHT22;38420;53.150;6.370;2023-09-19T07:27:56;14.90;99.90
52509;DHT22;38420;53.150;6.370;2023-09-19T07:30:21;15.30;99.90
52509;DHT22;38420;53.150;6.370;2023-09-19T07:32:47;14.70;99.90
52509;DHT22;38420;53.150;6.370;2023-09-19T07:35:13;15.30;99.90
52509;DHT22;38420;53.150;6.370;2023-09-19T07:37:40;15.10;99.90
52509;DHT22;38420;53.150;6.370;2023-09-19T07:40:06;15.40;99.90
52509;DHT22;38420;53.150;6.370;2023-09-19T07:42:36;14.70;99.90
52509;DHT22;38420;53.150;6.370;2023-09-19T07:45:04;15.20;99.90
52509;DHT22;38420;53.150;6.370;2023-09-19T07:47:30;14.90;99.90
52509;DHT22;38420;53.150;6.370;2023-09-19T07:49:58;14.80;99.90
52509;DHT22;38420;53.150;6.370;2023-09-19T07:52:24;15.60;99.90
52509;DHT22;38420;53.150;6.370;2023-09-19T07:54:50;15.00;99.90
52509;DHT22;38420;53.150;6.370;2023-09-19T07:57:15;15.20;99.90
52509;DHT22;38420;53.150;6.370;2023-09-19T07:59:41;15.00;99.90
52509;DHT22;38420;53.150;6.370;2023-09-19T08:02:08;15.70;99.90
52509;DHT22;38420;53.150;6.370;2023-09-19T08:04:42;15.20;99.90
52509;DHT22;38420;53.150;6.370;2023-09-19T08:07:07;15.20;99.90
52509;DHT22;38420;53.150;6.370;2023-09-19T08:09:34;15.30;99.90
52509;DHT22;38420;53.150;6.370;2023-09-19T08:12:00;15.40;99.90
52509;DHT22;38420;53.150;6.370;2023-09-19T08:14:30;15.50;99.90
52509;DHT22;38420;53.150;6.370;2023-09-19T08:16:57;15.50;99.90
52509;DHT22;38420;53.150;6.370;2023-09-19T08:19:24;15.50;99.90
52509;DHT22;38420;53.150;6.370;2023-09-19T08:21:56;15.30;99.90
52509;DHT22;38420;53.150;6.370;2023-09-19T08:24:25;15.50;99.90
52509;DHT22;38420;53.150;6.370;2023-09-19T08:26:52;15.70;99.90
52509;DHT22;38420;53.150;6.370;2023-09-19T08:29:20;16.20;99.90
52509;DHT22;38420;53.150;6.370;2023-09-19T08:31:45;16.20;99.90
52509;DHT22;38420;53.150;6.370;2023-09-19T08:34:13;16.50;99.90
52509;DHT22;38420;53.150;6.370;2023-09-19T08:36:38;16.80;99.90
52509;DHT22;38420;53.150;6.370;2023-09-19T08:39:06;17.70;99.90
52509;DHT22;38420;53.150;6.370;2023-09-19T08:41:32;17.60;99.90
52509;DHT22;38420;53.150;6.370;2023-09-19T08:44:00;17.80;99.90
52509;DHT22;38420;53.150;6.370;2023-09-19T08:46:29;17.80;99.90
52509;DHT22;38420;53.150;6.370;2023-09-19T08:49:03;18.10;99.90
52509;DHT22;38420;53.150;6.370;2023-09-19T08:51:43;18.00;99.90
52509;DHT22;38420;53.150;6.370;2023-09-19T08:54:35;18.10;99.90
52509;DHT22;38420;53.150;6.370;2023-09-19T08:57:06;18.50;99.90
52509;DHT22;38420;53.150;6.370;2023-09-19T08:59:38;18.30;99.90
52509;DHT22;38420;53.150;6.370;2023-09-19T09:02:11;18.20;99.90
52509;DHT22;38420;53.150;6.370;2023-09-19T09:04:42;18.20;99.90
52509;DHT22;38420;53.150;6.370;2023-09-19T09:07:12;17.90;99.90
52509;DHT22;38420;53.150;6.370;2023-09-19T09:09:42;18.20;99.90
52509;DHT22;38420;53.150;6.370;2023-09-19T09:12:13;18.30;99.90
52509;DHT22;38420;53.150;6.370;2023-09-19T09:14:45;18.10;99.90
52509;DHT22;38420;53.150;6.370;2023-09-19T09:17:18;18.20;99.90
52509;DHT22;38420;53.150;6.370;2023-09-19T09:19:47;17.90;99.90
52509;DHT22;38420;53.150;6.370;2023-09-19T09:22:13;17.50;99.90
52509;DHT22;38420;53.150;6.370;2023-09-19T09:24:55;17.20;99.90
52509;DHT22;38420;53.150;6.370;2023-09-19T09:27:24;17.20;99.90
52509;DHT22;38420;53.150;6.370;2023-09-19T09:29:51;16.70;99.90
52509;DHT22;38420;53.150;6.370;2023-09-19T09:32:29;16.80;99.90
52509;DHT22;38420;53.150;6.370;2023-09-19T09:34:57;17.30;99.90
52509;DHT22;38420;53.150;6.370;2023-09-19T09:37:24;17.30;99.90
52509;DHT22;38420;53.150;6.370;2023-09-19T09:40:01;17.30;99.90
52509;DHT22;38420;53.150;6.370;2023-09-19T09:42:39;17.10;99.90
52509;DHT22;38420;53.150;6.370;2023-09-19T09:45:16;17.40;99.90
52509;DHT22;38420;53.150;6.370;2023-09-19T09:47:47;17.10;99.90
52509;DHT22;38420;53.150;6.370;2023-09-19T09:50:32;17.10;99.90
52509;DHT22;38420;53.150;6.370;2023-09-19T09:53:29;17.40;99.90
52509;DHT22;38420;53.150;6.370;2023-09-19T09:56:07;17.40;99.90
52509;DHT22;38420;53.150;6.370;2023-09-19T09:58:35;17.00;99.90
52509;DHT22;38420;53.150;6.370;2023-09-19T10:01:03;17.30;99.90
52509;DHT22;38420;53.150;6.370;2023-09-19T10:03:38;17.30;99.90
52509;DHT22;38420;53.150;6.370;2023-09-19T10:06:11;17.20;99.90
52509;DHT22;38420;53.150;6.370;2023-09-19T10:08:59;17.30;99.90
52509;DHT22;38420;53.150;6.370;2023-09-19T10:11:47;17.70;99.90
52509;DHT22;38420;53.150;6.370;2023-09-19T10:14:20;17.80;99.90
52509;DHT22;38420;53.150;6.370;2023-09-19T10:16:49;17.80;99.90
52509;DHT22;38420;53.150;6.370;2023-09-19T10:19:29;17.60;99.90
52509;DHT22;38420;53.150;6.370;2023-09-19T10:21:56;17.70;99.90
52509;DHT22;38420;53.150;6.370;2023-09-19T10:24:24;17.70;99.90
52509;DHT22;38420;53.150;6.370;2023-09-19T10:26:53;17.80;99.90
52509;DHT22;38420;53.150;6.370;2023-09-19T10:29:21;17.80;99.90
52509;DHT22;38420;53.150;6.370;2023-09-19T10:31:52;17.90;99.90
52509;DHT22;38420;53.150;6.370;2023-09-19T10:34:19;18.20;99.90
52509;DHT22;38420;53.150;6.370;2023-09-19T10:36:46;18.20;99.90
52509;DHT22;38420;53.150;6.370;2023-09-19T10:39:15;18.20;99.90
52509;DHT22;38420;53.150;6.370;2023-09-19T10:41:50;18.00;99.90
52509;DHT22;38420;53.150;6.370;2023-09-19T10:44:32;18.10;99.90
52509;DHT22;38420;53.150;6.370;2023-09-19T10:46:58;18.10;99.90
52509;DHT22;38420;53.150;6.370;2023-09-19T10:49:24;17.90;99.90
52509;DHT22;38420;53.150;6.370;2023-09-19T10:51:56;17.60;99.90
52509;DHT22;38420;53.150;6.370;2023-09-19T10:54:27;17.90;99.90
52509;DHT22;38420;53.150;6.370;2023-09-19T10:56:55;17.70;99.90
52509;DHT22;38420;53.150;6.370;2023-09-19T10:59:24;17.80;99.90
52509;DHT22;38420;53.150;6.370;2023-09-19T11:04:32;17.60;99.90
52509;DHT22;38420;53.150;6.370;2023-09-19T11:14:57;17.60;99.90
52509;DHT22;38420;53.150;6.370;2023-09-19T11:17:42;17.50;99.90
52509;DHT22;38420;53.150;6.370;2023-09-19T11:25:46;17.60;99.90
52509;DHT22;38420;53.150;6.370;2023-09-19T11:28:28;17.50;99.90
52509;DHT22;38420;53.150;6.370;2023-09-19T11:30:56;17.50;99.90
52509;DHT22;38420;53.150;6.370;2023-09-19T11:33:25;17.70;99.90
52509;DHT22;38420;53.150;6.370;2023-09-19T11:36:13;17.80;99.90
52509;DHT22;38420;53.150;6.370;2023-09-19T11:44:30;18.20;99.90
52509;DHT22;38420;53.150;6.370;2023-09-19T11:49:19;18.20;99.90
52509;DHT22;38420;53.150;6.370;2023-09-19T11:51:51;18.30;99.90
52509;DHT22;38420;53.150;6.370;2023-09-19T11:54:20;18.10;99.90
52509;DHT22;38420;53.150;6.370;2023-09-19T11:56:53;18.10;99.90
52509;DHT22;38420;53.150;6.370;2023-09-19T11:59:23;18.20;99.90
52509;DHT22;38420;53.150;6.370;2023-09-19T12:01:54;18.00;99.90
52509;DHT22;38420;53.150;6.370;2023-09-19T12:04:42;17.80;99.90
52509;DHT22;38420;53.150;6.370;2023-09-19T12:07:09;18.00;99.90
52509;DHT22;38420;53.150;6.370;2023-09-19T12:09:42;17.90;99.90
52509;DHT22;38420;53.150;6.370;2023-09-19T12:12:20;17.90;99.90
52509;DHT22;38420;53.150;6.370;2023-09-19T12:14:49;18.00;99.90
52509;DHT22;38420;53.150;6.370;2023-09-19T12:17:16;17.70;99.90
52509;DHT22;38420;53.150;6.370;2023-09-19T12:19:55;17.70;99.90
52509;DHT22;38420;53.150;6.370;2023-09-19T12:22:20;17.70;99.90
52509;DHT22;38420;53.150;6.370;2023-09-19T12:24:46;18.00;99.90
52509;DHT22;38420;53.150;6.370;2023-09-19T12:27:12;17.50;99.90
52509;DHT22;38420;53.150;6.370;2023-09-19T12:29:49;17.20;99.90
52509;DHT22;38420;53.150;6.370;2023-09-19T12:32:15;17.10;99.90
52509;DHT22;38420;53.150;6.370;2023-09-19T12:34:51;17.40;99.90
52509;DHT22;38420;53.150;6.370;2023-09-19T12:37:18;17.10;99.90
52509;DHT22;38420;53.150;6.370;2023-09-19T12:39:49;17.30;99.90
52509;DHT22;38420;53.150;6.370;2023-09-19T12:42:24;17.40;99.90
52509;DHT22;38420;53.150;6.370;2023-09-19T12:44:51;17.70;99.90
52509;DHT22;38420;53.150;6.370;2023-09-19T12:47:23;17.70;99.90
52509;DHT22;38420;53.150;6.370;2023-09-19T12:50:09;17.90;99.90
52509;DHT22;38420;53.150;6.370;2023-09-19T12:52:51;17.90;99.90
52509;DHT22;38420;53.150;6.370;2023-09-19T13:00:37;17.70;99.90
52509;DHT22;38420;53.150;6.370;2023-09-19T13:03:30;17.90;99.90
52509;DHT22;38420;53.150;6.370;2023-09-19T13:06:02;18.00;99.90
52509;DHT22;38420;53.150;6.370;2023-09-19T13:08:34;17.80;99.90
52509;DHT22;38420;53.150;6.370;2023-09-19T13:11:04;18.00;99.90
52509;DHT22;38420;53.150;6.370;2023-09-19T13:13:46;17.80;99.90
52509;DHT22;38420;53.150;6.370;2023-09-19T13:16:19;18.00;99.90
52509;DHT22;38420;53.150;6.370;2023-09-19T13:18:53;18.10;99.90
52509;DHT22;38420;53.150;6.370;2023-09-19T13:21:30;17.70;99.90
52509;DHT22;38420;53.150;6.370;2023-09-19T13:24:22;17.40;99.90
52509;DHT22;38420;53.150;6.370;2023-09-19T13:26:56;17.50;99.90
52509;DHT22;38420;53.150;6.370;2023-09-19T13:29:22;17.20;99.90
52509;DHT22;38420;53.150;6.370;2023-09-19T13:34:13;17.70;99.90
52509;DHT22;38420;53.150;6.370;2023-09-19T13:36:41;17.80;99.90
52509;DHT22;38420;53.150;6.370;2023-09-19T13:39:08;17.60;99.90
52509;DHT22;38420;53.150;6.370;2023-09-19T13:41:35;17.60;99.90
52509;DHT22;38420;53.150;6.370;2023-09-19T13:44:03;17.90;99.90
52509;DHT22;38420;53.150;6.370;2023-09-19T13:46:28;17.50;99.90
52509;DHT22;38420;53.150;6.370;2023-09-19T13:48:56;17.90;99.90
52509;DHT22;38420;53.150;6.370;2023-09-19T13:51:26;18.00;99.90
52509;DHT22;38420;53.150;6.370;2023-09-19T13:53:51;18.00;99.90
52509;DHT22;38420;53.150;6.370;2023-09-19T13:56:17;17.90;99.90
52509;DHT22;38420;53.150;6.370;2023-09-19T13:58:43;18.10;99.90
52509;DHT22;38420;53.150;6.370;2023-09-19T14:01:08;18.10;99.90
52509;DHT22;38420;53.150;6.370;2023-09-19T14:03:42;18.10;99.90
52509;DHT22;38420;53.150;6.370;2023-09-19T14:06:13;18.10;99.90
52509;DHT22;38420;53.150;6.370;2023-09-19T14:08:38;17.70;99.90
52509;DHT22;38420;53.150;6.370;2023-09-19T14:11:08;18.10;99.90
52509;DHT22;38420;53.150;6.370;2023-09-19T14:13:33;17.70;99.90
52509;DHT22;38420;53.150;6.370;2023-09-19T14:16:06;18.10;99.90
52509;DHT22;38420;53.150;6.370;2023-09-19T14:18:34;17.80;99.90
52509;DHT22;38420;53.150;6.370;2023-09-19T14:21:03;18.10;99.90
52509;DHT22;38420;53.150;6.370;2023-09-19T14:23:33;18.10;99.90
52509;DHT22;38420;53.150;6.370;2023-09-19T14:26:01;18.10;99.90
52509;DHT22;38420;53.150;6.370;2023-09-19T14:28:26;18.10;99.90
52509;DHT22;38420;53.150;6.370;2023-09-19T14:30:52;18.30;99.90
52509;DHT22;38420;53.150;6.370;2023-09-19T14:33:18;18.00;99.90
52509;DHT22;38420;53.150;6.370;2023-09-19T14:35:43;18.30;99.90
52509;DHT22;38420;53.150;6.370;2023-09-19T14:38:09;18.30;99.90
52509;DHT22;38420;53.150;6.370;2023-09-19T14:40:34;18.30;99.90
52509;DHT22;38420;53.150;6.370;2023-09-19T14:43:01;18.40;99.90
52509;DHT22;38420;53.150;6.370;2023-09-19T14:45:27;18.00;99.90
52509;DHT22;38420;53.150;6.370;2023-09-19T14:47:53;18.30;99.90
52509;DHT22;38420;53.150;6.370;2023-09-19T14:50:21;18.20;99.90
52509;DHT22;38420;53.150;6.370;2023-09-19T14:52:48;17.60;99.90
52509;DHT22;38420;53.150;6.370;2023-09-19T14:55:15;18.00;99.90
52509;DHT22;38420;53.150;6.370;2023-09-19T14:57:42;17.70;99.90
52509;DHT22;38420;53.150;6.370;2023-09-19T15:00:11;18.10;99.90
52509;DHT22;38420;53.150;6.370;2023-09-19T15:02:40;17.50;99.90
52509;DHT22;38420;53.150;6.370;2023-09-19T15:05:06;17.90;99.90
52509;DHT22;38420;53.150;6.370;2023-09-19T15:07:37;17.50;99.90
52509;DHT22;38420;53.150;6.370;2023-09-19T15:10:04;17.70;99.90
52509;DHT22;38420;53.150;6.370;2023-09-19T15:12:32;17.50;99.90
52509;DHT22;38420;53.150;6.370;2023-09-19T15:14:58;17.70;99.90
52509;DHT22;38420;53.150;6.370;2023-09-19T15:17:24;17.20;99.90
52509;DHT22;38420;53.150;6.370;2023-09-19T15:19:50;17.30;99.90
52509;DHT22;38420;53.150;6.370;2023-09-19T15:22:16;17.00;99.90
52509;DHT22;38420;53.150;6.370;2023-09-19T15:24:42;17.60;99.90
52509;DHT22;38420;53.150;6.370;2023-09-19T15:27:08;17.20;99.90
52509;DHT22;38420;53.150;6.370;2023-09-19T15:29:33;16.70;99.90
52509;DHT22;38420;53.150;6.370;2023-09-19T15:31:59;16.40;99.90
52509;DHT22;38420;53.150;6.370;2023-09-19T15:34:28;16.40;99.90
52509;DHT22;38420;53.150;6.370;2023-09-19T15:36:54;16.70;99.90
52509;DHT22;38420;53.150;6.370;2023-09-19T15:39:19;16.60;99.90
52509;DHT22;38420;53.150;6.370;2023-09-19T15:41:48;17.20;99.90
52509;DHT22;38420;53.150;6.370;2023-09-19T15:44:18;16.90;99.90
52509;DHT22;38420;53.150;6.370;2023-09-19T15:46:44;17.30;99.90
52509;DHT22;38420;53.150;6.370;2023-09-19T15:49:11;17.30;99.90
52509;DHT22;38420;53.150;6.370;2023-09-19T15:51:37;17.00;99.90
52509;DHT22;38420;53.150;6.370;2023-09-19T15:54:11;16.30;99.90
52509;DHT22;38420;53.150;6.370;2023-09-19T15:56:38;16.50;99.90
52509;DHT22;38420;53.150;6.370;2023-09-19T15:59:06;17.30;99.90
52509;DHT22;38420;53.150;6.370;2023-09-19T16:01:32;16.40;99.90
52509;DHT22;38420;53.150;6.370;2023-09-19T16:03:58;17.30;99.90
52509;DHT22;38420;53.150;6.370;2023-09-19T16:06:28;16.10;99.90
52509;DHT22;38420;53.150;6.370;2023-09-19T16:08:58;17.00;99.90
52509;DHT22;38420;53.150;6.370;2023-09-19T16:11:25;16.20;99.90
52509;DHT22;38420;53.150;6.370;2023-09-19T16:13:52;16.30;99.90
52509;DHT22;38420;53.150;6.370;2023-09-19T16:16:19;16.20;99.90
52509;DHT22;38420;53.150;6.370;2023-09-19T16:18:47;17.00;99.90
52509;DHT22;38420;53.150;6.370;2023-09-19T16:21:16;16.30;99.90
52509;DHT22;38420;53.150;6.370;2023-09-19T16:23:50;16.80;99.90
52509;DHT22;38420;53.150;6.370;2023-09-19T16:26:17;17.30;99.90
52509;DHT22;38420;53.150;6.370;2023-09-19T16:28:50;16.20;99.90